• Join FlightAware (Why Join?)
  • Login
  • US Flag 
09:36AM EDT


 

Airport Tracker/Info


-or-


 

Live Flight TrackerFlight Track Log ✈ UAL33 ✈ 31-Jan-2014 ✈ RJAA / NRT - KLAX

Flight Track Log - Related Links

Times and Time Zones

All times are in EST time to prevent confusion due to time zone crossing. See the UAL33 flight status page for this flight to view local times or setup timezone preferences in your user account.

Time Position Orientation Groundspeed Altitude Reporting Facility
EST Latitude Longitude Course Direction KTS MPH feet Rate Location/Type
04:54AM 36.0008 140.8341 57° Northeast  Level FlightAware Approximate
04:55AM 36.0791 140.9840 57° Northeast  Level FlightAware Approximate
04:56AM 36.1572 141.1341 57° Northeast  Level FlightAware Approximate
04:57AM 36.2357 141.2856 57° Northeast  Level FlightAware Approximate
04:58AM 36.3140 141.4375 57° Northeast  Level FlightAware Approximate
04:59AM 36.3920 141.5894 57° Northeast  Level FlightAware Approximate
05:00AM 36.4697 141.7415 58° Northeast  Level FlightAware Approximate
05:01AM 36.5473 141.8940 58° Northeast  Level FlightAware Approximate
05:02AM 36.6247 142.0468 58° Northeast  Level FlightAware Approximate
05:03AM 36.7019 142.1999 58° Northeast  Level FlightAware Approximate
05:04AM 36.7789 142.3533 58° Northeast  Level FlightAware Approximate
05:05AM 36.8557 142.5070 58° Northeast  Level FlightAware Approximate
05:06AM 36.9323 142.6610 58° Northeast  Level FlightAware Approximate
05:07AM 37.0088 142.8153 58° Northeast  Level FlightAware Approximate
05:08AM 37.0850 142.9700 58° Northeast  Level FlightAware Approximate
05:09AM 37.1553 143.1143 59° Northeast  Level FlightAware Approximate
05:10AM 37.2308 143.2698 59° Northeast  Level FlightAware Approximate
05:11AM 37.3061 143.4256 59° Northeast  Level FlightAware Approximate
05:12AM 37.3812 143.5817 59° Northeast  Level FlightAware Approximate
05:13AM 37.4561 143.7381 59° Northeast  Level FlightAware Approximate
05:14AM 37.5307 143.8948 59° Northeast  Level FlightAware Approximate
05:15AM 37.6052 144.0519 59° Northeast  Level FlightAware Approximate
05:16AM 37.6795 144.2092 59° Northeast  Level FlightAware Approximate
05:17AM 37.7535 144.3669 59° Northeast  Level FlightAware Approximate
05:18AM 37.8273 144.5249 59° Northeast  Level FlightAware Approximate
05:19AM 37.9009 144.6832 59° Northeast  Level FlightAware Approximate
05:20AM 37.9743 144.8418 60° Northeast  Level FlightAware Approximate
05:21AM 38.0476 145.0008 60° Northeast  Level FlightAware Approximate
05:22AM 38.1205 145.1600 60° Northeast  Level FlightAware Approximate
05:23AM 38.1933 145.3196 60° Northeast  Level FlightAware Approximate
05:24AM 38.2659 145.4795 60° Northeast  Level FlightAware Approximate
05:25AM 38.3382 145.6398 60° Northeast  Level FlightAware Approximate
05:26AM 38.4103 145.8003 60° Northeast  Level FlightAware Approximate
05:27AM 38.4822 145.9612 60° Northeast  Level FlightAware Approximate
05:28AM 38.5539 146.1223 60° Northeast  Level FlightAware Approximate
05:29AM 38.6253 146.2838 60° Northeast  Level FlightAware Approximate
05:30AM 38.6983 146.4496 61° Northeast  Level FlightAware Approximate
05:31AM 38.7693 146.6117 61° Northeast  Level FlightAware Approximate
05:32AM 38.8400 146.7742 61° Northeast  Level FlightAware Approximate
05:33AM 38.9106 146.9370 61° Northeast  Level FlightAware Approximate
05:34AM 38.9809 147.1001 61° Northeast  Level FlightAware Approximate
05:35AM 39.0511 147.2635 61° Northeast  Level FlightAware Approximate
05:36AM 39.1212 147.4271 61° Northeast  Level FlightAware Approximate
05:37AM 39.1911 147.5910 61° Northeast  Level FlightAware Approximate
05:38AM 39.2607 147.7553 61° Northeast  Level FlightAware Approximate
05:39AM 39.3302 147.9198 61° Northeast  Level FlightAware Approximate
05:40AM 39.3993 148.0848 61° Northeast  Level FlightAware Approximate
05:41AM 39.4683 148.2500 62° Northeast  Level FlightAware Approximate
05:42AM 39.5370 148.4155 62° Northeast  Level FlightAware Approximate
05:43AM 39.6055 148.5814 62° Northeast  Level FlightAware Approximate
05:44AM 39.6737 148.7477 62° Northeast  Level FlightAware Approximate
05:45AM 39.7417 148.9142 62° Northeast  Level FlightAware Approximate
05:46AM 39.8095 149.0811 62° Northeast  Level FlightAware Approximate
05:47AM 39.8770 149.2483 62° Northeast  Level FlightAware Approximate
05:48AM 39.9443 149.4158 62° Northeast  Level FlightAware Approximate
05:49AM 40.0113 149.5837 62° Northeast  Level FlightAware Approximate
05:50AM 40.0781 149.7519 63° Northeast  Level FlightAware Approximate
05:51AM 40.1446 149.9204 63° Northeast  Level FlightAware Approximate
05:52AM 40.2110 150.0892 63° Northeast  Level FlightAware Approximate
05:53AM 40.2770 150.2584 63° Northeast  Level FlightAware Approximate
05:54AM 40.3428 150.4279 63° Northeast  Level FlightAware Approximate
05:55AM 40.4084 150.5978 63° Northeast  Level FlightAware Approximate
05:56AM 40.4737 150.7679 63° Northeast  Level FlightAware Approximate
05:57AM 40.5388 150.9384 63° Northeast  Level FlightAware Approximate
05:58AM 40.6036 151.1093 63° Northeast  Level FlightAware Approximate
05:59AM 40.6682 151.2804 64° Northeast  Level FlightAware Approximate
06:00AM 40.7325 151.4519 64° Northeast  Level FlightAware Approximate
06:01AM 40.7966 151.6237 64° Northeast  Level FlightAware Approximate
06:02AM 40.8604 151.7959 64° Northeast  Level FlightAware Approximate
06:03AM 40.9239 151.9684 64° Northeast  Level FlightAware Approximate
06:04AM 40.9872 152.1412 64° Northeast  Level FlightAware Approximate
06:05AM 41.0502 152.3144 64° Northeast  Level FlightAware Approximate
06:06AM 41.1130 152.4878 64° Northeast  Level FlightAware Approximate
06:07AM 41.1755 152.6617 64° Northeast  Level FlightAware Approximate
06:08AM 41.2378 152.8358 65° Northeast  Level FlightAware Approximate
06:09AM 41.2998 153.0103 65° Northeast  Level FlightAware Approximate
06:10AM 41.3615 153.1851 65° Northeast  Level FlightAware Approximate
06:11AM 41.4229 153.3602 65° Northeast  Level FlightAware Approximate
06:12AM 41.4841 153.5357 65° Northeast  Level FlightAware Approximate
06:13AM 41.5450 153.7115 65° Northeast  Level FlightAware Approximate
06:14AM 41.6057 153.8876 65° Northeast  Level FlightAware Approximate
06:15AM 41.6661 154.0641 65° Northeast  Level FlightAware Approximate
06:16AM 41.7262 154.2409 65° Northeast  Level FlightAware Approximate
06:17AM 41.7860 154.4180 66° East  Level FlightAware Approximate
06:18AM 41.8456 154.5954 66° East  Level FlightAware Approximate
06:19AM 41.9049 154.7732 66° East  Level FlightAware Approximate
06:20AM 41.9639 154.9513 66° East  Level FlightAware Approximate
06:21AM 42.0227 155.1298 66° East  Level FlightAware Approximate
06:22AM 42.0812 155.3085 66° East  Level FlightAware Approximate
06:23AM 42.1394 155.4877 66° East  Level FlightAware Approximate
06:24AM 42.1973 155.6671 66° East  Level FlightAware Approximate
06:25AM 42.2549 155.8468 67° East  Level FlightAware Approximate
06:26AM 42.3122 156.0269 67° East  Level FlightAware Approximate
06:27AM 42.3693 156.2073 67° East  Level FlightAware Approximate
06:28AM 42.4261 156.3881 67° East  Level FlightAware Approximate
06:29AM 42.4826 156.5692 67° East  Level FlightAware Approximate
06:30AM 42.5388 156.7505 67° East  Level FlightAware Approximate
06:31AM 42.5947 156.9323 67° East  Level FlightAware Approximate
06:32AM 42.6504 157.1143 67° East  Level FlightAware Approximate
06:33AM 42.7057 157.2967 68° East  Level FlightAware Approximate
06:34AM 42.7608 157.4794 68° East  Level FlightAware Approximate
06:35AM 42.8156 157.6624 68° East  Level FlightAware Approximate
06:36AM 42.8700 157.8457 68° East  Level FlightAware Approximate
06:37AM 42.9242 158.0294 68° East  Level FlightAware Approximate
06:38AM 42.9781 158.2134 68° East  Level FlightAware Approximate
06:39AM 43.0317 158.3977 68° East  Level FlightAware Approximate
06:40AM 43.0850 158.5824 68° East  Level FlightAware Approximate
06:41AM 43.1381 158.7676 69° East  Level FlightAware Approximate
06:42AM 43.1909 158.9532 69° East  Level FlightAware Approximate
06:43AM 43.2434 159.1392 69° East  Level FlightAware Approximate
06:44AM 43.2956 159.3254 69° East  Level FlightAware Approximate
06:45AM 43.3475 159.5120 69° East  Level FlightAware Approximate
06:46AM 43.3991 159.6989 69° East  Level FlightAware Approximate
06:47AM 43.4504 159.8861 69° East  Level FlightAware Approximate
06:48AM 43.5014 160.0736 69° East  Level FlightAware Approximate
06:49AM 43.5521 160.2615 70° East  Level FlightAware Approximate
06:50AM 43.6024 160.4496 70° East  Level FlightAware Approximate
06:51AM 43.6525 160.6381 70° East  Level FlightAware Approximate
06:52AM 43.7023 160.8269 70° East  Level FlightAware Approximate
06:53AM 43.7527 161.0199 70° East  Level FlightAware Approximate
06:54AM 43.8028 161.2132 70° East  Level FlightAware Approximate
06:55AM 43.8526 161.4068 70° East  Level FlightAware Approximate
06:56AM 43.9021 161.6008 70° East  Level FlightAware Approximate
06:57AM 43.9512 161.7951 71° East  Level FlightAware Approximate
06:58AM 44.0000 161.9897 71° East  Level FlightAware Approximate
06:59AM 44.0485 162.1846 71° East  Level FlightAware Approximate
07:00AM 44.0967 162.3798 71° East  Level FlightAware Approximate
07:01AM 44.1445 162.5754 71° East  Level FlightAware Approximate
07:02AM 44.1920 162.7713 71° East  Level FlightAware Approximate
07:03AM 44.2391 162.9675 71° East  Level FlightAware Approximate
07:04AM 44.2859 163.1640 72° East  Level FlightAware Approximate
07:05AM 44.3324 163.3608 72° East  Level FlightAware Approximate
07:06AM 44.3786 163.5579 72° East  Level FlightAware Approximate
07:07AM 44.4244 163.7553 72° East  Level FlightAware Approximate
07:08AM 44.4698 163.9530 72° East  Level FlightAware Approximate
07:09AM 44.5149 164.1511 72° East  Level FlightAware Approximate
07:10AM 44.5597 164.3495 72° East  Level FlightAware Approximate
07:11AM 44.6041 164.5481 72° East  Level FlightAware Approximate
07:12AM 44.6482 164.7471 73° East  Level FlightAware Approximate
07:13AM 44.6919 164.9463 73° East  Level FlightAware Approximate
07:14AM 44.7353 165.1459 73° East  Level FlightAware Approximate
07:15AM 44.7784 165.3458 73° East  Level FlightAware Approximate
07:16AM 44.8211 165.5459 73° East  Level FlightAware Approximate
07:16AM 41.5667 167.3333 77° East 551 634 39,000  Level Oakland Oceanic (ODAPS)
07:29AM 42.0000 170.0500 79° East 528 608 39,000  Level Oakland Oceanic (ODAPS)
07:30AM 42.0333 170.2000 79° East 521 600 39,000  Level Oakland Oceanic (ODAPS)
07:43AM 42.3667 172.7333 81° East 533 613 39,000  Level Oakland Oceanic (ODAPS)
07:57AM 42.6667 175.5000 83° East 546 628 39,000  Level Oakland Oceanic (ODAPS)
08:10AM 42.9000 178.3167 85° East 523 602 39,000  Level Oakland Oceanic (ODAPS)
08:19AM 43.0000 180.0000 87° East 517 595 39,000  Level Oakland Oceanic (ODAPS)
08:24AM 43.0333 -179.0000 87° East 524 603 39,000  Level Oakland Oceanic (ODAPS)
08:38AM 43.1000 -176.2167 89° East 524 603 39,000  Level Oakland Oceanic (ODAPS)
08:52AM 43.1000 -173.4667 91° East 521 600 39,000  Level Oakland Oceanic (ODAPS)
09:06AM 43.0333 -170.7000 93° East 537 618 39,000  Level Oakland Oceanic (ODAPS)
09:09AM 43.0000 -170.0000 87° East 539 620 39,000  Level Oakland Oceanic (ODAPS)
09:20AM 43.0667 -167.8833 88° East 537 618 39,000  Level Oakland Oceanic (ODAPS)
09:34AM 43.1167 -165.0667 90° East 533 613 39,000  Level Oakland Oceanic (ODAPS)
09:47AM 43.0833 -162.2833 92° East 533 613 39,000  Level Oakland Oceanic (ODAPS)
09:59AM 43.0000 -160.0000 94° East 544 626 39,000  Level Oakland Oceanic (ODAPS)
10:01AM 42.9667 -159.4833 95° East 545 627 39,000  Level Oakland Oceanic (ODAPS)
10:15AM 42.7667 -156.7000 97° East 545 627 39,000  Level Oakland Oceanic (ODAPS)
10:29AM 42.5000 -153.9000 99° East 551 634 39,000  Level Oakland Oceanic (ODAPS)
10:43AM 42.1500 -151.0333 101° East 579 666 39,000  Level Oakland Oceanic (ODAPS)
10:48AM 42.0000 -150.0000 94° East 570 656 39,000  Level Oakland Oceanic (ODAPS)
10:57AM 41.8833 -148.0833 96° East 559 643 39,000  Level Oakland Oceanic (ODAPS)
11:11AM 41.6333 -145.2833 97° East 545 627 40,000  Climbing Oakland Oceanic (ODAPS)
11:24AM 41.3333 -142.5167 99° East 551 634 40,000  Level Oakland Oceanic (ODAPS)
11:37AM 41.0000 -140.0000 101° East 561 646 40,000  Level Oakland Oceanic (ODAPS)
11:38AM 40.9667 -139.7333 102° East 562 647 40,000  Level Oakland Oceanic (ODAPS)
11:52AM 40.5000 -136.9667 103° East 566 651 40,000  Level Oakland Oceanic (ODAPS)
12:06PM 39.9667 -134.2000 105° East 563 648 40,000  Level Oakland Oceanic (ODAPS)
12:20PM 39.3500 -131.4667 107° East 576 663 40,000  Level Oakland Oceanic (ODAPS)
12:28PM 39.0000 -130.0000 102° East 572 658 40,000  Level Oakland Oceanic (ODAPS)
12:34PM 38.7833 -128.7500 102° East 571 657 40,000  Level Oakland Oceanic (ODAPS)
12:40PM 38.5647 -127.5094 111° Southeast 580 667 40,000  Level Oakland Center
12:41PM 38.5393 -127.3876 103° East 571 657 40,000 -120 Level FlightAware Transoceanic
12:41PM 38.5186 -127.2694 104° East 582 670 39,900  Descending Oakland Center
12:42PM 38.5031 -127.1937 103° East 571 657 40,000  Climbing FlightAware Transoceanic
12:42PM 38.4811 -127.0706 103° East 580 667 39,900  Descending Oakland Center
12:43PM 38.4667 -127.0000 111° Southeast 571 657 40,000  Climbing FlightAware Transoceanic
12:43PM 38.4303 -126.8761 108° East 579 666 39,900  Descending Oakland Center
12:44PM 38.4094 -126.8114 111° Southeast 571 657 40,000  Climbing FlightAware Transoceanic
12:44PM 38.3656 -126.6886 114° Southeast 580 667 39,900  Descending Oakland Center
12:45PM 38.3518 -126.6232 111° Southeast 571 657 40,000 60 Climbing FlightAware Transoceanic
12:45PM 38.2967 -126.5025 115° Southeast 582 670 40,000  Level Oakland Center
12:46PM 38.2275 -126.3167 115° Southeast 582 670 40,000  Level Oakland Center
12:47PM 38.1558 -126.1225 115° Southeast 580 667 40,000 -60 Level Oakland Center
12:48PM 38.0853 -125.9389 116° Southeast 582 670 39,900  Descending Oakland Center
12:49PM 38.0161 -125.7542 115° Southeast 582 670 40,000  Climbing Oakland Center
12:50PM 37.9456 -125.5711 116° Southeast 580 667 40,000  Level Oakland Center
12:51PM 37.8617 -125.3492 116° Southeast 584 672 40,000 -60 Level Oakland Center
12:52PM 37.7917 -125.1647 116° Southeast 583 671 39,900  Descending Oakland Center
12:53PM 37.7225 -124.9811 115° Southeast 581 669 40,000  Climbing Oakland Center
12:54PM 37.6519 -124.7975 116° Southeast 583 671 40,000 -60 Level Oakland Center
12:55PM 37.5814 -124.6161 116° Southeast 580 667 39,900  Descending Oakland Center
12:56PM 37.5103 -124.4331 116° Southeast 584 672 40,000  Climbing Oakland Center
12:58PM 37.4389 -124.2494 116° Southeast 585 673 40,000 -60 Level Oakland Center
12:59PM 37.3675 -124.0675 116° Southeast 585 673 39,900  Descending Oakland Center
01:00PM 37.2781 -123.8444 117° Southeast 595 685 40,000  Climbing Oakland Center
01:01PM 37.2053 -123.6617 117° Southeast 591 680 40,000  Level Oakland Center
01:02PM 37.1322 -123.4800 117° Southeast 589 678 40,000 -60 Level Oakland Center
01:03PM 37.0597 -123.2986 117° Southeast 586 674 39,900  Descending Oakland Center
01:04PM 36.9872 -123.1189 117° Southeast 584 672 40,000  Climbing Oakland Center
01:05PM 36.9139 -122.9400 117° Southeast 582 670 40,000  Level Oakland Center
01:06PM 36.8419 -122.7614 117° Southeast 581 669 40,000 -60 Level Oakland Center
01:07PM 36.7533 -122.5489 117° Southeast 579 666 39,900  Descending Oakland Center
01:08PM 36.6800 -122.3722 117° Southeast 578 665 40,000  Climbing Oakland Center
01:09PM 36.6058 -122.1950 117° Southeast 580 667 40,000 -60 Level Oakland Center
01:10PM 36.5311 -122.0167 117° Southeast 585 673 39,900 -60 Descending Oakland Center
01:11PM 36.4564 -121.8411 118° Southeast 579 666 39,900  Level Oakland Center
01:12PM 36.3714 -121.6347 117° Southeast 586 674 39,900  Level Oakland Center
01:13PM 36.2931 -121.4625 119° Southeast 579 666 40,000  Climbing Oakland Center
01:14PM 36.2194 -121.2831 117° Southeast 583 671 40,000 -480 Level Oakland Center
01:15PM 36.1422 -121.1089 119° Southeast 581 669 39,100 -1,200 Descending Oakland Center
01:16PM 36.0664 -120.9317 118° Southeast 582 670 37,600 -1,440 Descending Oakland Center
01:17PM 35.9894 -120.7544 118° Southeast 585 673 36,200 -1,320 Descending Oakland Center
01:18PM 35.9117 -120.5764 118° Southeast 588 677 35,000 -600 Descending Oakland Center
01:19PM 35.8342 -120.4006 118° Southeast 584 672 35,000 -60 Level Oakland Center
01:20PM 35.7558 -120.2242 119° Southeast 583 671 34,900  Descending Oakland Center
01:21PM 35.6769 -120.0458 119° Southeast 586 674 35,000  Climbing Oakland Center
01:22PM 35.5906 -119.9283 132° Southeast 576 663 34,900 -780 Descending Los Angeles Center
01:23PM 35.4333 -119.7947 145° Southeast 567 652 33,600 -1,380 Descending Los Angeles Center
01:24PM 35.3047 -119.6847 145° Southeast 562 647 32,100 -1,800 Descending Los Angeles Center
01:25PM 35.1756 -119.5719 144° Southeast 567 652 30,000 -2,340 Descending Los Angeles Center
01:26PM 35.0472 -119.4644 146° Southeast 560 644 27,300 -2,400 Descending Los Angeles Center
01:27PM 34.9203 -119.3561 145° Southeast 558 642 25,000 -2,460 Descending Los Angeles Center
01:28PM 34.8081 -119.2592 145° Southeast 490 564 22,300 -2,340 Descending Los Angeles Center
01:29PM 34.6856 -119.1572 146° Southeast 448 516 20,200 -1,620 Descending Los Angeles Center
01:35PM 34.1257 -118.7963 146° Southeast 327 376 11,600 -1,500 Descending FlightAware ADS-B
01:36PM 34.0739 -118.7746 161° South 325 374 11,000 -1,020 Descending FlightAware ADS-B
01:36PM 34.0555 -118.7571 142° Southeast 330 380 10,700 -840 Descending FlightAware ADS-B
01:36PM 34.0352 -118.7133 119° Southeast 323 372 10,400 -1,080 Descending FlightAware ADS-B
01:38PM 34.0163 -118.5205 97° East 292 336 8,300 -1,080 Descending FlightAware ADS-B
01:39PM 34.0128 -118.4853 97° East 278 320 8,000 -1,080 Descending FlightAware ADS-B
01:39PM 34.0120 -118.4535 92° East 259 298 7,500 -1,740 Descending FlightAware ADS-B
01:40PM 34.0212 -118.3834 81° East 240 276 5,900 -1,680 Descending FlightAware ADS-B
01:40PM 34.0287 -118.3407 78° East 233 268 5,300 -1,080 Descending FlightAware ADS-B
01:41PM 34.0360 -118.2979 78° East 200 230 4,700 -780 Descending FlightAware ADS-B
01:42PM 34.0467 -118.2408 78° East 199 229 4,100 -720 Descending Los Angeles Center
01:43PM 34.0153 -118.1997 133° Southeast 190 219 3,400 -780 Descending Los Angeles Center
01:44PM 33.9750 -118.2347 216° Southwest 189 217 2,500 -720 Descending Los Angeles Center
01:45PM 33.9642 -118.2919 257° West 182 209 2,000 -660 Descending Los Angeles Center
01:46PM 33.9589 -118.3419 263° West 166 191 1,200 -840 Descending Los Angeles Center
01:47PM 33.9533 -118.3969 263° West 149 171 300 -480 Descending Los Angeles Center
01:48PM 33.9481 -118.4383 261° West 146 168 200 -120 Descending Los Angeles Center